Elliot Cheramie — WDE9213 — position and weather

sailwx.info

Track history (hours):
 
Tides and Currents Weather Stations Pressure Air Temp Water Temp Dewpoint Dewpoint Depression Visibility Wind Speed Wind Dir Waves Ship Positions

Elliot Cheramie

Owner: Cheramie Marine LLC, Golden Meadow, LA. More information available from US FCC via Universal Licensing System and Coast Guard Vessel Documentation Center.

Last reported at 2018-Jun-20 15:14 UTC. Time now 2018-Jun-22 20:21 UTC.
Position N 28°46' W 095°18'.

; draft 3 m.

MMSI: 367414780.

Date/timePositionNaut miles runAvg speedWind from/ knotsBaromVisibWave heightAir tempDewpointWater temp
2018-Jun-20 15:14N 28°46' W 095°18'3 9.4
2018-Jun-20 14:54N 28°49' W 095°17'4 9.7
2018-Jun-20 14:30N 28°53' W 095°17'4 8.6
2018-Jun-20 14:00N 28°57' W 095°18'2 3.6
2018-Jun-20 13:30N 28°58' W 095°17'0 0.1
2018-Jun-20 13:00N 28°58' W 095°17'0 0.0
2018-Jun-20 12:30N 28°58' W 095°17'0 0.0
2018-Jun-20 12:00N 28°58' W 095°17'0 0.0
2018-Jun-20 03:13N 28°58' W 095°17'0 0.0
2018-Jun-20 03:00N 28°58' W 095°17'0 0.0
2018-Jun-20 02:30N 28°58' W 095°17'0 0.0
2018-Jun-20 02:00N 28°58' W 095°17'0 0.0
2018-Jun-20 01:30N 28°58' W 095°17'0 0.0
2018-Jun-20 01:00N 28°58' W 095°17'0 0.0
2018-Jun-20 00:30N 28°58' W 095°17'0 0.0
2018-Jun-20 00:00N 28°58' W 095°17'0 0.0
2018-Jun-19 23:30N 28°58' W 095°17'0 0.0
2018-Jun-19 23:00N 28°58' W 095°17'0 0.0
2018-Jun-19 22:30N 28°58' W 095°17'0 0.0
2018-Jun-19 22:00N 28°58' W 095°17'0 0.0
2018-Jun-19 21:30N 28°58' W 095°17'0 0.0
2018-Jun-19 21:00N 28°58' W 095°17'0 0.0
2018-Jun-19 20:30N 28°58' W 095°17'0 0.0
2018-Jun-19 20:00N 28°58' W 095°17'0 0.0
2018-Jun-19 19:30N 28°58' W 095°17'0 0.0
2018-Jun-19 19:00N 28°58' W 095°17'0 0.0
2018-Jun-19 18:30N 28°58' W 095°17'0 0.0
2018-Jun-19 18:00N 28°58' W 095°17'0 0.0
2018-Jun-19 17:29N 28°58' W 095°17'0 0.0
2018-Jun-19 17:01N 28°58' W 095°17'0 0.0
2018-Jun-19 16:30N 28°58' W 095°17'0 0.0
2018-Jun-19 16:01N 28°58' W 095°17'0 0.0
2018-Jun-19 15:31N 28°58' W 095°17'0 0.0
2018-Jun-19 15:00N 28°58' W 095°17'0 0.0
2018-Jun-19 14:30N 28°58' W 095°17'0 0.0
2018-Jun-19 14:01N 28°58' W 095°17'0 0.0
2018-Jun-19 13:30N 28°58' W 095°17'0 0.0
2018-Jun-19 13:00N 28°58' W 095°17'0 0.0
2018-Jun-19 12:30N 28°58' W 095°17'2 3.3
2018-Jun-19 12:00N 28°57' W 095°18'  
2018-Jun-13 23:48N 28°38' W 094°29'1 0.3
2018-Jun-13 22:03N 28°38' W 094°29'0 0.3
2018-Jun-13 21:57N 28°38' W 094°29'2 0.1
2018-Jun-13 03:19N 28°38' W 094°32'1 1.6
2018-Jun-13 02:56N 28°38' W 094°32'19 0.4
2018-Jun-11 04:33N 28°43' W 094°11'0 0.0
2018-Jun-11 04:28N 28°43' W 094°11'0 0.0
2018-Jun-11 03:07N 28°43' W 094°11'0 0.1
2018-Jun-11 03:00N 28°43' W 094°11'  
Track history (hours):
 
Tides and Currents Weather Stations Pressure Air Temp Water Temp Dewpoint Dewpoint Depression Visibility Wind Speed Wind Dir Waves Ship Positions

Elliot Cheramie

Owner: Cheramie Marine LLC, Golden Meadow, LA. More information available from US FCC via Universal Licensing System and Coast Guard Vessel Documentation Center.

Last reported at 2018-Jun-20 15:14 UTC. Time now 2018-Jun-22 20:21 UTC.
Position N 28°46' W 095°18'.

; draft 3 m.

MMSI: 367414780.

Date/timePositionNaut miles runAvg speedWind from/ knotsBaromVisibWave heightAir tempDewpointWater temp
2018-Jun-20 15:14N 28°46' W 095°18'3 9.4
2018-Jun-20 14:54N 28°49' W 095°17'4 9.7
2018-Jun-20 14:30N 28°53' W 095°17'4 8.6
2018-Jun-20 14:00N 28°57' W 095°18'2 3.6
2018-Jun-20 13:30N 28°58' W 095°17'0 0.1
2018-Jun-20 13:00N 28°58' W 095°17'0 0.0
2018-Jun-20 12:30N 28°58' W 095°17'0 0.0
2018-Jun-20 12:00N 28°58' W 095°17'0 0.0
2018-Jun-20 03:13N 28°58' W 095°17'0 0.0
2018-Jun-20 03:00N 28°58' W 095°17'0 0.0
2018-Jun-20 02:30N 28°58' W 095°17'0 0.0
2018-Jun-20 02:00N 28°58' W 095°17'0 0.0
2018-Jun-20 01:30N 28°58' W 095°17'0 0.0
2018-Jun-20 01:00N 28°58' W 095°17'0 0.0
2018-Jun-20 00:30N 28°58' W 095°17'0 0.0
2018-Jun-20 00:00N 28°58' W 095°17'0 0.0
2018-Jun-19 23:30N 28°58' W 095°17'0 0.0
2018-Jun-19 23:00N 28°58' W 095°17'0 0.0
2018-Jun-19 22:30N 28°58' W 095°17'0 0.0
2018-Jun-19 22:00N 28°58' W 095°17'0 0.0
2018-Jun-19 21:30N 28°58' W 095°17'0 0.0
2018-Jun-19 21:00N 28°58' W 095°17'0 0.0
2018-Jun-19 20:30N 28°58' W 095°17'0 0.0
2018-Jun-19 20:00N 28°58' W 095°17'0 0.0
2018-Jun-19 19:30N 28°58' W 095°17'0 0.0
2018-Jun-19 19:00N 28°58' W 095°17'0 0.0
2018-Jun-19 18:30N 28°58' W 095°17'0 0.0
2018-Jun-19 18:00N 28°58' W 095°17'0 0.0
2018-Jun-19 17:29N 28°58' W 095°17'0 0.0
2018-Jun-19 17:01N 28°58' W 095°17'0 0.0
2018-Jun-19 16:30N 28°58' W 095°17'0 0.0
2018-Jun-19 16:01N 28°58' W 095°17'0 0.0
2018-Jun-19 15:31N 28°58' W 095°17'0 0.0
2018-Jun-19 15:00N 28°58' W 095°17'0 0.0
2018-Jun-19 14:30N 28°58' W 095°17'0 0.0
2018-Jun-19 14:01N 28°58' W 095°17'0 0.0
2018-Jun-19 13:30N 28°58' W 095°17'0 0.0
2018-Jun-19 13:00N 28°58' W 095°17'0 0.0
2018-Jun-19 12:30N 28°58' W 095°17'2 3.3
2018-Jun-19 12:00N 28°57' W 095°18'  
2018-Jun-13 23:48N 28°38' W 094°29'1 0.3
2018-Jun-13 22:03N 28°38' W 094°29'0 0.3
2018-Jun-13 21:57N 28°38' W 094°29'2 0.1
2018-Jun-13 03:19N 28°38' W 094°32'1 1.6
2018-Jun-13 02:56N 28°38' W 094°32'19 0.4
2018-Jun-11 04:33N 28°43' W 094°11'0 0.0
2018-Jun-11 04:28N 28°43' W 094°11'0 0.0
2018-Jun-11 03:07N 28°43' W 094°11'0 0.1
2018-Jun-11 03:00N 28°43' W 094°11'  

Dump ship's entire track history